aviador You're here:

KBKB Decoded Metar

FULLERTON/POLK in LA, USA
Report Time2017-08-18 09:54:00
UTC Time2017-08-18 10:48:18
Flight Rules lifr LIFR
WindVRB at 03 kt
Visibility9656 m
Phenomena:Mist
Clouds:Overcast 002 Hf
Ceiling200 ft
Temp26°C (ISA +12)
Dew Point26°C (100% RH)
QNH1016 hPa
Density Alt1,988 ft
Elevation308 ft
Report Wrong Elevation
Raw Report
KBKB 180954Z AUTO VRB03KT 6SM BR OVC002 26/26 A2999 RMK AO2 SLP180
T02610256=

Extra information for KBKB:More info

Metar Taf Metar & Taf Last 4 Metars F.Rules Stats Wind Profile Meteogram Temp Stats Airport Information Weather charts Add Link Nearby VenuesMetar ALERT Operation Metar Decoded Social comments

AIRNAV info for KBKB